sensor_id;sensor_type;location;lat;lon;timestamp;pressure;altitude;pressure_sealevel;temperature;humidity
51617;BME280;37697;52.588;13.394;2022-11-20T00:03:55;100639.58;;;-0.70;88.25
51617;BME280;37697;52.588;13.394;2022-11-20T00:08:59;100635.06;;;-0.67;88.20
51617;BME280;37697;52.588;13.394;2022-11-20T00:14:02;100643.72;;;-0.77;87.94
51617;BME280;37697;52.588;13.394;2022-11-20T00:19:03;100634.20;;;-0.79;88.16
51617;BME280;37697;52.588;13.394;2022-11-20T00:24:04;100637.41;;;-0.80;88.11
51617;BME280;37697;52.588;13.394;2022-11-20T00:29:05;100636.69;;;-0.78;88.26
51617;BME280;37697;52.588;13.394;2022-11-20T00:34:06;100629.39;;;-0.77;88.11
51617;BME280;37697;52.588;13.394;2022-11-20T00:39:07;100635.38;;;-0.75;88.21
51617;BME280;37697;52.588;13.394;2022-11-20T00:44:08;100640.20;;;-0.77;87.99
51617;BME280;37697;52.588;13.394;2022-11-20T00:49:08;100647.81;;;-0.86;87.83
51617;BME280;37697;52.588;13.394;2022-11-20T00:54:09;100642.41;;;-0.86;88.08
51617;BME280;37697;52.588;13.394;2022-11-20T00:59:10;100639.48;;;-0.84;88.03
51617;BME280;37697;52.588;13.394;2022-11-20T01:04:11;100633.53;;;-0.84;88.01
51617;BME280;37697;52.588;13.394;2022-11-20T01:09:13;100636.83;;;-0.82;87.91
51617;BME280;37697;52.588;13.394;2022-11-20T01:14:17;100631.88;;;-0.85;87.94
51617;BME280;37697;52.588;13.394;2022-11-20T01:19:21;100626.86;;;-0.81;88.04
51617;BME280;37697;52.588;13.394;2022-11-20T01:24:23;100623.25;;;-0.84;87.91
51617;BME280;37697;52.588;13.394;2022-11-20T01:29:24;100637.36;;;-0.82;87.77
51617;BME280;37697;52.588;13.394;2022-11-20T01:34:25;100622.72;;;-0.84;87.64
51617;BME280;37697;52.588;13.394;2022-11-20T01:39:26;100626.77;;;-0.84;87.73
51617;BME280;37697;52.588;13.394;2022-11-20T01:49:59;100609.50;;;-0.83;87.64
51617;BME280;37697;52.588;13.394;2022-11-20T01:55:19;100611.67;;;-0.82;87.65
51617;BME280;37697;52.588;13.394;2022-11-20T02:00:23;100615.64;;;-0.85;87.56
51617;BME280;37697;52.588;13.394;2022-11-20T02:05:31;100612.07;;;-0.88;87.40
51617;BME280;37697;52.588;13.394;2022-11-20T02:10:35;100605.54;;;-0.89;87.52
51617;BME280;37697;52.588;13.394;2022-11-20T02:15:36;100602.02;;;-0.90;87.41
51617;BME280;37697;52.588;13.394;2022-11-20T02:20:37;100595.71;;;-0.93;87.42
51617;BME280;37697;52.588;13.394;2022-11-20T02:25:39;100595.71;;;-0.93;87.43
51617;BME280;37697;52.588;13.394;2022-11-20T02:30:41;100599.45;;;-0.94;87.53
51617;BME280;37697;52.588;13.394;2022-11-20T02:35:45;100595.71;;;-0.93;87.54
51617;BME280;37697;52.588;13.394;2022-11-20T02:40:46;100598.02;;;-0.87;87.73
51617;BME280;37697;52.588;13.394;2022-11-20T02:45:47;100601.41;;;-0.92;87.38
51617;BME280;37697;52.588;13.394;2022-11-20T02:50:47;100590.44;;;-0.88;87.59
51617;BME280;37697;52.588;13.394;2022-11-20T02:55:48;100594.27;;;-0.86;87.28
51617;BME280;37697;52.588;13.394;2022-11-20T03:00:49;100592.07;;;-0.87;87.21
51617;BME280;37697;52.588;13.394;2022-11-20T03:05:49;100587.97;;;-0.89;87.18
51617;BME280;37697;52.588;13.394;2022-11-20T03:10:51;100598.55;;;-0.88;87.20
51617;BME280;37697;52.588;13.394;2022-11-20T03:15:52;100589.01;;;-0.90;87.22
51617;BME280;37697;52.588;13.394;2022-11-20T03:20:58;100582.84;;;-0.88;87.31
51617;BME280;37697;52.588;13.394;2022-11-20T03:26:17;100579.40;;;-0.86;87.21
51617;BME280;37697;52.588;13.394;2022-11-20T03:31:35;100577.69;;;-0.90;87.10
51617;BME280;37697;52.588;13.394;2022-11-20T03:36:38;100577.55;;;-0.95;86.89
51617;BME280;37697;52.588;13.394;2022-11-20T03:41:41;100573.36;;;-1.00;86.95
51617;BME280;37697;52.588;13.394;2022-11-20T03:46:42;100567.19;;;-0.98;87.22
51617;BME280;37697;52.588;13.394;2022-11-20T03:51:43;100563.72;;;-0.96;87.11
51617;BME280;37697;52.588;13.394;2022-11-20T03:56:44;100555.74;;;-0.91;87.33
51617;BME280;37697;52.588;13.394;2022-11-20T04:01:44;100557.69;;;-0.89;87.03
51617;BME280;37697;52.588;13.394;2022-11-20T04:06:45;100560.16;;;-0.87;87.17
51617;BME280;37697;52.588;13.394;2022-11-20T04:11:46;100558.76;;;-0.90;87.10
51617;BME280;37697;52.588;13.394;2022-11-20T04:16:46;100557.99;;;-0.88;86.98
51617;BME280;37697;52.588;13.394;2022-11-20T04:21:47;100555.29;;;-0.88;87.08
51617;BME280;37697;52.588;13.394;2022-11-20T04:26:48;100564.22;;;-0.87;86.93
51617;BME280;37697;52.588;13.394;2022-11-20T04:31:49;100561.73;;;-0.89;86.83
51617;BME280;37697;52.588;13.394;2022-11-20T04:36:50;100563.27;;;-0.93;86.80
51617;BME280;37697;52.588;13.394;2022-11-20T04:41:50;100556.73;;;-0.94;86.88
51617;BME280;37697;52.588;13.394;2022-11-20T04:46:56;100562.37;;;-0.96;86.81
51617;BME280;37697;52.588;13.394;2022-11-20T04:51:57;100552.32;;;-0.98;86.84
51617;BME280;37697;52.588;13.394;2022-11-20T04:56:58;100554.12;;;-1.01;86.83
51617;BME280;37697;52.588;13.394;2022-11-20T05:01:59;100541.83;;;-1.06;86.71
51617;BME280;37697;52.588;13.394;2022-11-20T05:07:00;100548.13;;;-1.03;87.04
51617;BME280;37697;52.588;13.394;2022-11-20T05:12:00;100542.19;;;-1.03;86.90
51617;BME280;37697;52.588;13.394;2022-11-20T05:17:01;100530.25;;;-1.04;86.79
51617;BME280;37697;52.588;13.394;2022-11-20T05:22:01;100529.97;;;-1.05;86.89
51617;BME280;37697;52.588;13.394;2022-11-20T05:27:02;100526.55;;;-1.01;87.04
51617;BME280;37697;52.588;13.394;2022-11-20T05:32:03;100529.20;;;-1.03;86.88
51617;BME280;37697;52.588;13.394;2022-11-20T05:37:06;100522.86;;;-1.09;86.79
51617;BME280;37697;52.588;13.394;2022-11-20T05:42:06;100519.70;;;-1.06;87.10
51617;BME280;37697;52.588;13.394;2022-11-20T05:47:27;100514.03;;;-1.04;87.00
51617;BME280;37697;52.588;13.394;2022-11-20T05:52:29;100509.98;;;-1.04;86.89
51617;BME280;37697;52.588;13.394;2022-11-20T05:57:31;100511.86;;;-1.05;86.91
51617;BME280;37697;52.588;13.394;2022-11-20T06:02:34;100502.94;;;-1.05;87.03
51617;BME280;37697;52.588;13.394;2022-11-20T06:07:34;100505.19;;;-1.02;87.02
51617;BME280;37697;52.588;13.394;2022-11-20T06:12:35;100505.70;;;-1.03;87.01
51617;BME280;37697;52.588;13.394;2022-11-20T06:17:36;100501.64;;;-1.03;87.05
51617;BME280;37697;52.588;13.394;2022-11-20T06:22:37;100503.30;;;-1.02;87.15
51617;BME280;37697;52.588;13.394;2022-11-20T06:27:37;100506.90;;;-0.99;87.16
51617;BME280;37697;52.588;13.394;2022-11-20T06:32:38;100498.79;;;-0.99;87.05
51617;BME280;37697;52.588;13.394;2022-11-20T06:37:39;100503.94;;;-0.97;87.14
51617;BME280;37697;52.588;13.394;2022-11-20T06:42:39;100503.20;;;-0.95;87.15
51617;BME280;37697;52.588;13.394;2022-11-20T06:47:40;100502.66;;;-0.94;87.13
51617;BME280;37697;52.588;13.394;2022-11-20T06:52:41;100499.73;;;-0.93;87.22
51617;BME280;37697;52.588;13.394;2022-11-20T06:57:41;100494.69;;;-0.89;87.23
51617;BME280;37697;52.588;13.394;2022-11-20T07:02:42;100495.58;;;-0.86;87.12
51617;BME280;37697;52.588;13.394;2022-11-20T07:07:43;100490.98;;;-0.86;87.14
51617;BME280;37697;52.588;13.394;2022-11-20T07:12:48;100490.80;;;-0.82;87.29
51617;BME280;37697;52.588;13.394;2022-11-20T07:17:51;100492.27;;;-0.77;87.27
51617;BME280;37697;52.588;13.394;2022-11-20T07:22:56;100494.75;;;-0.75;87.01
51617;BME280;37697;52.588;13.394;2022-11-20T07:27:58;100499.70;;;-0.72;87.22
51617;BME280;37697;52.588;13.394;2022-11-20T07:33:00;100495.56;;;-0.74;87.08
51617;BME280;37697;52.588;13.394;2022-11-20T07:38:00;100501.33;;;-0.71;87.34
51617;BME280;37697;52.588;13.394;2022-11-20T07:43:01;100496.99;;;-0.72;87.21
51617;BME280;37697;52.588;13.394;2022-11-20T07:48:02;100491.48;;;-0.65;87.38
51617;BME280;37697;52.588;13.394;2022-11-20T07:53:04;100484.53;;;-0.61;87.30
51617;BME280;37697;52.588;13.394;2022-11-20T07:58:05;100477.70;;;-0.52;87.27
51617;BME280;37697;52.588;13.394;2022-11-20T08:03:06;100480.83;;;-0.46;87.21
51617;BME280;37697;52.588;13.394;2022-11-20T08:08:07;100476.34;;;-0.40;87.09
51617;BME280;37697;52.588;13.394;2022-11-20T08:13:08;100473.45;;;-0.36;86.81
51617;BME280;37697;52.588;13.394;2022-11-20T08:18:27;100478.20;;;-0.29;86.98
51617;BME280;37697;52.588;13.394;2022-11-20T08:23:28;100472.55;;;-0.27;86.53
51617;BME280;37697;52.588;13.394;2022-11-20T08:28:29;100475.56;;;-0.26;86.56
51617;BME280;37697;52.588;13.394;2022-11-20T08:33:30;100476.61;;;-0.27;86.37
51617;BME280;37697;52.588;13.394;2022-11-20T08:38:32;100474.10;;;-0.31;86.08
51617;BME280;37697;52.588;13.394;2022-11-20T08:43:33;100469.55;;;-0.28;86.25
51617;BME280;37697;52.588;13.394;2022-11-20T08:48:34;100464.08;;;-0.19;86.08
51617;BME280;37697;52.588;13.394;2022-11-20T08:53:35;100466.01;;;-0.17;85.64
51617;BME280;37697;52.588;13.394;2022-11-20T08:58:36;100464.50;;;-0.25;85.59
51617;BME280;37697;52.588;13.394;2022-11-20T09:03:38;100476.49;;;-0.21;85.76
51617;BME280;37697;52.588;13.394;2022-11-20T09:08:39;100468.95;;;-0.18;85.61
51617;BME280;37697;52.588;13.394;2022-11-20T09:13:40;100471.89;;;-0.20;85.19
51617;BME280;37697;52.588;13.394;2022-11-20T09:18:40;100469.73;;;0.06;86.28
51617;BME280;37697;52.588;13.394;2022-11-20T09:23:41;100465.59;;;0.03;85.31
51617;BME280;37697;52.588;13.394;2022-11-20T09:28:42;100472.33;;;0.01;85.08
51617;BME280;37697;52.588;13.394;2022-11-20T09:33:42;100472.13;;;0.05;85.13
51617;BME280;37697;52.588;13.394;2022-11-20T09:38:43;100473.02;;;0.08;85.14
51617;BME280;37697;52.588;13.394;2022-11-20T09:43:49;100465.09;;;0.04;84.70
51617;BME280;37697;52.588;13.394;2022-11-20T09:49:02;100459.06;;;0.02;84.94
51617;BME280;37697;52.588;13.394;2022-11-20T09:54:19;100460.39;;;0.13;85.13
51617;BME280;37697;52.588;13.394;2022-11-20T09:59:40;100453.48;;;0.20;84.92
51617;BME280;37697;52.588;13.394;2022-11-20T10:04:51;100452.27;;;0.28;84.80
51617;BME280;37697;52.588;13.394;2022-11-20T10:09:59;100451.99;;;0.27;84.48
51617;BME280;37697;52.588;13.394;2022-11-20T10:15:14;100451.22;;;0.29;84.53
51617;BME280;37697;52.588;13.394;2022-11-20T10:20:44;100446.41;;;0.33;84.47
51617;BME280;37697;52.588;13.394;2022-11-20T10:26:02;100440.52;;;0.36;84.42
51617;BME280;37697;52.588;13.394;2022-11-20T10:31:10;100435.97;;;0.40;84.29
51617;BME280;37697;52.588;13.394;2022-11-20T10:36:22;100419.74;;;0.42;84.09
51617;BME280;37697;52.588;13.394;2022-11-20T10:41:34;100422.99;;;0.42;83.83
51617;BME280;37697;52.588;13.394;2022-11-20T10:46:45;100414.72;;;0.48;83.83
51617;BME280;37697;52.588;13.394;2022-11-20T10:51:59;100410.11;;;0.49;83.76
51617;BME280;37697;52.588;13.394;2022-11-20T11:02:54;100417.45;;;0.82;83.75
51617;BME280;37697;52.588;13.394;2022-11-20T11:07:58;100424.38;;;0.75;83.60
51617;BME280;37697;52.588;13.394;2022-11-20T11:12:59;100419.11;;;0.69;83.53
51617;BME280;37697;52.588;13.394;2022-11-20T11:18:00;100424.14;;;0.60;82.93
51617;BME280;37697;52.588;13.394;2022-11-20T11:23:01;100411.23;;;0.50;83.20
51617;BME280;37697;52.588;13.394;2022-11-20T11:33:23;100409.23;;;0.46;83.24
51617;BME280;37697;52.588;13.394;2022-11-20T11:38:41;100398.31;;;0.41;83.35
51617;BME280;37697;52.588;13.394;2022-11-20T11:43:54;100397.83;;;0.44;83.54
51617;BME280;37697;52.588;13.394;2022-11-20T11:49:17;100391.35;;;0.45;83.29
51617;BME280;37697;52.588;13.394;2022-11-20T11:54:25;100395.33;;;0.40;83.65
51617;BME280;37697;52.588;13.394;2022-11-20T12:05:24;100389.69;;;0.27;83.61
51617;BME280;37697;52.588;13.394;2022-11-20T12:10:40;100391.28;;;0.25;83.58
51617;BME280;37697;52.588;13.394;2022-11-20T12:15:44;100385.67;;;0.15;83.79
51617;BME280;37697;52.588;13.394;2022-11-20T12:26:48;100383.75;;;0.13;84.00
51617;BME280;37697;52.588;13.394;2022-11-20T12:37:51;100378.52;;;0.23;84.22
51617;BME280;37697;52.588;13.394;2022-11-20T12:43:21;100367.60;;;0.35;84.17
51617;BME280;37697;52.588;13.394;2022-11-20T12:59:34;100356.19;;;0.33;83.77
51617;BME280;37697;52.588;13.394;2022-11-20T13:09:55;100351.05;;;0.48;83.73
51617;BME280;37697;52.588;13.394;2022-11-20T13:15:11;100345.80;;;0.59;83.96
51617;BME280;37697;52.588;13.394;2022-11-20T13:20:32;100342.89;;;0.65;83.76
51617;BME280;37697;52.588;13.394;2022-11-20T13:25:36;100332.02;;;0.63;83.37
51617;BME280;37697;52.588;13.394;2022-11-20T13:30:50;100330.42;;;0.64;83.35
51617;BME280;37697;52.588;13.394;2022-11-20T13:35:57;100334.41;;;0.59;83.52
51617;BME280;37697;52.588;13.394;2022-11-20T13:41:01;100330.59;;;0.58;83.35
51617;BME280;37697;52.588;13.394;2022-11-20T13:46:08;100328.95;;;0.40;82.74
51617;BME280;37697;52.588;13.394;2022-11-20T13:56:58;100336.53;;;0.23;83.71
51617;BME280;37697;52.588;13.394;2022-11-20T14:02:13;100340.17;;;0.14;83.39
51617;BME280;37697;52.588;13.394;2022-11-20T14:07:16;100344.05;;;0.04;83.69
51617;BME280;37697;52.588;13.394;2022-11-20T14:12:31;100347.20;;;-0.02;83.78
51617;BME280;37697;52.588;13.394;2022-11-20T14:17:34;100341.39;;;-0.08;83.90
51617;BME280;37697;52.588;13.394;2022-11-20T14:22:36;100338.01;;;-0.15;83.67
51617;BME280;37697;52.588;13.394;2022-11-20T14:27:39;100339.27;;;-0.20;83.89
51617;BME280;37697;52.588;13.394;2022-11-20T14:32:43;100330.36;;;-0.18;84.36
51617;BME280;37697;52.588;13.394;2022-11-20T14:37:45;100333.41;;;-0.14;84.27
51617;BME280;37697;52.588;13.394;2022-11-20T14:42:45;100335.36;;;-0.12;84.30
51617;BME280;37697;52.588;13.394;2022-11-20T14:47:46;100336.35;;;-0.16;84.07
51617;BME280;37697;52.588;13.394;2022-11-20T14:52:56;100329.58;;;-0.16;84.32
51617;BME280;37697;52.588;13.394;2022-11-20T14:58:05;100323.90;;;-0.17;84.30
51617;BME280;37697;52.588;13.394;2022-11-20T15:03:21;100323.42;;;-0.14;84.37
51617;BME280;37697;52.588;13.394;2022-11-20T15:08:22;100317.70;;;-0.15;84.37
51617;BME280;37697;52.588;13.394;2022-11-20T15:13:26;100315.58;;;-0.13;84.46
51617;BME280;37697;52.588;13.394;2022-11-20T15:18:32;100325.38;;;-0.09;84.47
51617;BME280;37697;52.588;13.394;2022-11-20T15:23:35;100317.77;;;-0.12;84.36
51617;BME280;37697;52.588;13.394;2022-11-20T15:28:44;100310.39;;;-0.14;84.29
51617;BME280;37697;52.588;13.394;2022-11-20T15:33:48;100315.00;;;-0.15;84.40
51617;BME280;37697;52.588;13.394;2022-11-20T15:38:49;100311.14;;;-0.19;84.34
51617;BME280;37697;52.588;13.394;2022-11-20T15:43:50;100301.91;;;-0.21;84.44
51617;BME280;37697;52.588;13.394;2022-11-20T15:48:56;100305.73;;;-0.19;84.69
51617;BME280;37697;52.588;13.394;2022-11-20T15:53:58;100297.61;;;-0.19;84.37
51617;BME280;37697;52.588;13.394;2022-11-20T15:58:59;100294.27;;;-0.24;84.36
51617;BME280;37697;52.588;13.394;2022-11-20T16:04:00;100286.45;;;-0.23;84.30
51617;BME280;37697;52.588;13.394;2022-11-20T16:09:01;100281.81;;;-0.25;84.27
51617;BME280;37697;52.588;13.394;2022-11-20T16:14:03;100279.28;;;-0.29;84.03
51617;BME280;37697;52.588;13.394;2022-11-20T16:19:23;100288.66;;;-0.34;84.10
51617;BME280;37697;52.588;13.394;2022-11-20T16:24:24;100284.94;;;-0.45;83.89
51617;BME280;37697;52.588;13.394;2022-11-20T16:29:24;100276.69;;;-0.52;84.00
51617;BME280;37697;52.588;13.394;2022-11-20T16:34:25;100273.88;;;-0.58;84.13
51617;BME280;37697;52.588;13.394;2022-11-20T16:39:26;100286.25;;;-0.62;84.08
51617;BME280;37697;52.588;13.394;2022-11-20T16:44:26;100284.02;;;-0.65;84.12
51617;BME280;37697;52.588;13.394;2022-11-20T16:49:27;100289.62;;;-0.69;84.01
51617;BME280;37697;52.588;13.394;2022-11-20T16:54:28;100285.50;;;-0.71;84.22
51617;BME280;37697;52.588;13.394;2022-11-20T16:59:29;100285.50;;;-0.71;84.16
51617;BME280;37697;52.588;13.394;2022-11-20T17:04:29;100293.41;;;-0.67;84.35
51617;BME280;37697;52.588;13.394;2022-11-20T17:09:30;100297.48;;;-0.67;84.23
51617;BME280;37697;52.588;13.394;2022-11-20T17:14:30;100299.60;;;-0.69;84.18
51617;BME280;37697;52.588;13.394;2022-11-20T17:19:31;100301.06;;;-0.64;84.38
51617;BME280;37697;52.588;13.394;2022-11-20T17:24:32;100295.45;;;-0.60;84.45
51617;BME280;37697;52.588;13.394;2022-11-20T17:29:33;100287.95;;;-0.58;84.39
51617;BME280;37697;52.588;13.394;2022-11-20T17:34:33;100285.85;;;-0.53;84.31
51617;BME280;37697;52.588;13.394;2022-11-20T17:39:34;100285.38;;;-0.50;84.27
51617;BME280;37697;52.588;13.394;2022-11-20T17:44:35;100285.08;;;-0.51;84.01
51617;BME280;37697;52.588;13.394;2022-11-20T17:49:36;100284.50;;;-0.53;83.90
51617;BME280;37697;52.588;13.394;2022-11-20T17:54:37;100283.92;;;-0.55;84.00
51617;BME280;37697;52.588;13.394;2022-11-20T17:59:37;100281.76;;;-0.56;84.04
51617;BME280;37697;52.588;13.394;2022-11-20T18:04:39;100277.70;;;-0.56;84.16
51617;BME280;37697;52.588;13.394;2022-11-20T18:09:40;100272.56;;;-0.55;84.03
51617;BME280;37697;52.588;13.394;2022-11-20T18:14:40;100262.05;;;-0.54;84.02
51617;BME280;37697;52.588;13.394;2022-11-20T18:19:43;100258.29;;;-0.53;84.04
51617;BME280;37697;52.588;13.394;2022-11-20T18:24:45;100260.25;;;-0.48;84.21
51617;BME280;37697;52.588;13.394;2022-11-20T18:29:46;100254.06;;;-0.46;84.24
51617;BME280;37697;52.588;13.394;2022-11-20T18:34:51;100248.17;;;-0.43;84.01
51617;BME280;37697;52.588;13.394;2022-11-20T18:39:51;100249.83;;;-0.42;83.95
51617;BME280;37697;52.588;13.394;2022-11-20T18:44:52;100240.63;;;-0.41;83.94
51617;BME280;37697;52.588;13.394;2022-11-20T18:49:56;100249.29;;;-0.42;83.75
51617;BME280;37697;52.588;13.394;2022-11-20T18:54:59;100242.46;;;-0.44;83.64
51617;BME280;37697;52.588;13.394;2022-11-20T19:00:04;100245.09;;;-0.49;83.56
51617;BME280;37697;52.588;13.394;2022-11-20T19:05:12;100243.41;;;-0.53;83.52
51617;BME280;37697;52.588;13.394;2022-11-20T19:10:18;100246.02;;;-0.58;83.60
51617;BME280;37697;52.588;13.394;2022-11-20T19:15:19;100242.12;;;-0.62;83.66
51617;BME280;37697;52.588;13.394;2022-11-20T19:20:20;100238.92;;;-0.62;83.67
51617;BME280;37697;52.588;13.394;2022-11-20T19:25:21;100243.98;;;-0.65;83.60
51617;BME280;37697;52.588;13.394;2022-11-20T19:30:22;100245.81;;;-0.68;83.70
51617;BME280;37697;52.588;13.394;2022-11-20T19:35:23;100240.64;;;-0.70;83.71
51617;BME280;37697;52.588;13.394;2022-11-20T19:40:24;100245.51;;;-0.69;83.84
51617;BME280;37697;52.588;13.394;2022-11-20T19:45:25;100246.35;;;-0.69;83.74
51617;BME280;37697;52.588;13.394;2022-11-20T19:50:27;100240.00;;;-0.74;83.72
51617;BME280;37697;52.588;13.394;2022-11-20T19:55:27;100248.61;;;-0.78;83.74
51617;BME280;37697;52.588;13.394;2022-11-20T20:00:28;100245.30;;;-0.80;83.79
51617;BME280;37697;52.588;13.394;2022-11-20T20:05:32;100242.33;;;-0.81;83.91
51617;BME280;37697;52.588;13.394;2022-11-20T20:10:33;100235.50;;;-0.83;83.69
51617;BME280;37697;52.588;13.394;2022-11-20T20:15:38;100221.70;;;-0.84;83.79
51617;BME280;37697;52.588;13.394;2022-11-20T20:20:40;100219.44;;;-0.90;83.63
51617;BME280;37697;52.588;13.394;2022-11-20T20:25:41;100213.19;;;-0.90;83.67
51617;BME280;37697;52.588;13.394;2022-11-20T20:30:43;100214.78;;;-0.92;83.63
51617;BME280;37697;52.588;13.394;2022-11-20T20:35:43;100210.58;;;-1.00;83.39
51617;BME280;37697;52.588;13.394;2022-11-20T20:40:48;100209.02;;;-1.10;83.40
51617;BME280;37697;52.588;13.394;2022-11-20T20:45:52;100204.08;;;-1.13;83.69
51617;BME280;37697;52.588;13.394;2022-11-20T20:50:55;100203.57;;;-1.12;83.81
51617;BME280;37697;52.588;13.394;2022-11-20T20:56:00;100199.98;;;-1.16;83.68
51617;BME280;37697;52.588;13.394;2022-11-20T21:01:13;100194.44;;;-1.23;83.63
51617;BME280;37697;52.588;13.394;2022-11-20T21:06:12;100189.54;;;-1.24;83.91
51617;BME280;37697;52.588;13.394;2022-11-20T21:11:16;100180.92;;;-1.23;83.94
51617;BME280;37697;52.588;13.394;2022-11-20T21:16:19;100184.13;;;-1.24;84.00
51617;BME280;37697;52.588;13.394;2022-11-20T21:21:21;100181.66;;;-1.25;83.97
51617;BME280;37697;52.588;13.394;2022-11-20T21:26:41;100175.34;;;-1.31;83.72
51617;BME280;37697;52.588;13.394;2022-11-20T21:31:41;100170.17;;;-1.32;83.89
51617;BME280;37697;52.588;13.394;2022-11-20T21:36:42;100161.22;;;-1.36;83.65
51617;BME280;37697;52.588;13.394;2022-11-20T21:41:43;100157.05;;;-1.41;83.47
51617;BME280;37697;52.588;13.394;2022-11-20T21:46:44;100149.37;;;-1.46;83.63
51617;BME280;37697;52.588;13.394;2022-11-20T21:51:45;100144.72;;;-1.48;83.57
51617;BME280;37697;52.588;13.394;2022-11-20T21:56:46;100144.68;;;-1.51;83.57
51617;BME280;37697;52.588;13.394;2022-11-20T22:01:47;100136.81;;;-1.53;83.54
51617;BME280;37697;52.588;13.394;2022-11-20T22:06:47;100125.89;;;-1.58;83.28
51617;BME280;37697;52.588;13.394;2022-11-20T22:11:48;100122.58;;;-1.62;83.38
51617;BME280;37697;52.588;13.394;2022-11-20T22:16:50;100123.58;;;-1.66;83.24
51617;BME280;37697;52.588;13.394;2022-11-20T22:21:52;100113.72;;;-1.72;83.26
51617;BME280;37697;52.588;13.394;2022-11-20T22:26:53;100104.16;;;-1.77;83.18
51617;BME280;37697;52.588;13.394;2022-11-20T22:31:54;100105.97;;;-1.80;82.97
51617;BME280;37697;52.588;13.394;2022-11-20T22:36:55;100090.27;;;-2.07;82.70
51617;BME280;37697;52.588;13.394;2022-11-20T22:41:55;100090.27;;;-2.07;82.70
51617;BME280;37697;52.588;13.394;2022-11-20T22:46:56;100107.70;;;-2.00;82.72
51617;BME280;37697;52.588;13.394;2022-11-20T22:51:56;100098.67;;;-2.06;82.75
51617;BME280;37697;52.588;13.394;2022-11-20T22:56:57;100093.51;;;-2.07;82.84
51617;BME280;37697;52.588;13.394;2022-11-20T23:01:58;100083.41;;;-2.12;82.70
51617;BME280;37697;52.588;13.394;2022-11-20T23:06:58;100078.44;;;-2.18;82.63
51617;BME280;37697;52.588;13.394;2022-11-20T23:11:59;100068.29;;;-2.25;82.39
51617;BME280;37697;52.588;13.394;2022-11-20T23:17:00;100063.31;;;-2.31;82.41
51617;BME280;37697;52.588;13.394;2022-11-20T23:22:00;100055.09;;;-2.36;82.36
51617;BME280;37697;52.588;13.394;2022-11-20T23:27:01;100056.63;;;-2.40;82.34
51617;BME280;37697;52.588;13.394;2022-11-20T23:32:02;100049.28;;;-2.42;82.58
51617;BME280;37697;52.588;13.394;2022-11-20T23:37:03;100056.09;;;-2.39;82.68
51617;BME280;37697;52.588;13.394;2022-11-20T23:42:04;100053.22;;;-2.35;82.94
51617;BME280;37697;52.588;13.394;2022-11-20T23:47:05;100051.17;;;-2.31;83.05
51617;BME280;37697;52.588;13.394;2022-11-20T23:52:05;100046.12;;;-2.27;83.05
51617;BME280;37697;52.588;13.394;2022-11-20T23:57:06;100034.88;;;-2.24;83.13
